South Houston, Texas
Current Conditions -  °F | °C
As of 4:53 AM on Monday 20 Oct 2014 (Local Time) from KHOU Reporting Station
Scattered Clouds Scattered Clouds  
Wind Chill: 66°   Ceiling: Unl
Heat Index: 66°   Visibility: 10mi
Dew Point: 60°   Wind: 5mph
Humidity: 81%   Direction: 70°ENE
Pressure: 29.99"   Gusts: NA
Location:  29.66°N, 95.24°W
Report Text: KHOU 200953Z COR 07004KT 10SM SCT220 19/16 A2999 RMK AO2 SLP161 T01890156
Loading
Personal Weather Stations






























Interactive Weather Map
Tropical Storm Tracking
New forecast layout! Learn more

10-Day Weather Forecast

Advertisements
Track Severe Weather on mobile